Time;durP1;ratioP1;P1;durP2;ratioP2;P2;SDS_P1;SDS_P2;PMS_P1;PMS_P2;Temp;Humidity;BMP_temperature;BMP_pressure;BME280_temperature;BME280_humidity;BME280_pressure;Samples;Min_cycle;Max_cycle;Signal;HPM_P1;HPM_P2
2022/01/01 00:01:15;;;;;;;65.35;41.75;;;11.50;99.90;;;;;;5097788;28;20067;-74
2022/01/01 00:03:41;;;;;;;76.68;51.90;;;11.50;99.90;;;;;;5129004;28;20047;-73
2022/01/01 00:06:06;;;;;;;65.38;42.78;;;11.40;99.90;;;;;;5128940;27;20036;-74
2022/01/01 00:08:32;;;;;;;65.82;42.95;;;11.50;99.90;;;;;;5109937;28;20123;-74
2022/01/01 00:10:57;;;;;;;63.28;40.22;;;11.50;99.90;;;;;;5128945;27;20086;-73
2022/01/01 00:13:23;;;;;;;54.65;34.20;;;11.50;99.90;;;;;;5111696;28;20058;-74
2022/01/01 00:15:48;;;;;;;57.05;35.28;;;11.50;99.90;;;;;;5094763;28;20035;-73
2022/01/01 00:18:16;;;;;;;60.47;37.08;;;11.60;99.90;;;;;;5094673;28;20058;-73
2022/01/01 00:20:41;;;;;;;58.08;35.05;;;11.50;99.90;;;;;;5094508;28;20046;-73
2022/01/01 00:23:07;;;;;;;55.97;31.52;;;11.50;99.90;;;;;;5111815;28;20032;-74
2022/01/01 00:25:32;;;;;;;53.30;30.30;;;11.50;99.90;;;;;;5112496;28;20560;-73
2022/01/01 00:27:58;;;;;;;52.45;28.27;;;11.50;99.90;;;;;;5108666;28;20042;-74
2022/01/01 00:30:24;;;;;;;52.00;28.70;;;11.60;99.90;;;;;;5112727;27;20049;-74
2022/01/01 00:32:49;;;;;;;55.85;33.03;;;11.60;99.90;;;;;;5109414;27;20078;-73
2022/01/01 00:35:15;;;;;;;57.42;36.35;;;11.50;99.90;;;;;;5090727;28;20031;-74
2022/01/01 00:37:40;;;;;;;61.25;36.40;;;11.50;99.90;;;;;;5108228;28;20032;-73
2022/01/01 00:40:06;;;;;;;55.08;35.40;;;11.50;99.90;;;;;;5085775;28;20035;-73
2022/01/01 00:42:32;;;;;;;52.92;33.95;;;11.60;99.90;;;;;;5098678;28;20051;-73
2022/01/01 00:44:58;;;;;;;57.55;31.10;;;11.50;99.90;;;;;;5111953;28;20047;-73
2022/01/01 00:47:23;;;;;;;48.50;24.38;;;11.50;99.90;;;;;;5077588;28;20032;-73
2022/01/01 00:49:49;;;;;;;42.25;21.25;;;11.60;99.90;;;;;;5094807;28;20050;-73
2022/01/01 00:52:14;;;;;;;41.53;22.10;;;11.60;99.90;;;;;;5095150;28;20126;-73
2022/01/01 00:54:41;;;;;;;43.30;20.52;;;11.50;99.90;;;;;;5094829;28;20526;-74
2022/01/01 00:57:07;;;;;;;44.42;22.83;;;11.40;99.90;;;;;;5077800;28;20108;-73
2022/01/01 00:59:33;;;;;;;39.63;19.42;;;11.30;99.90;;;;;;5094631;28;20092;-73
2022/01/01 01:01:59;;;;;;;36.60;18.27;;;11.30;99.90;;;;;;5129543;27;20111;-73
2022/01/01 01:04:25;;;;;;;36.10;16.40;;;11.40;99.90;;;;;;5115128;28;20046;-73
2022/01/01 01:06:51;;;;;;;43.88;20.17;;;11.40;99.90;;;;;;5114538;27;20082;-73
2022/01/01 01:09:17;;;;;;;34.05;17.52;;;11.40;99.90;;;;;;5112921;28;20491;-74
2022/01/01 01:11:46;;;;;;;41.50;17.38;;;11.50;99.90;;;;;;5115000;28;20048;-73
2022/01/01 01:14:19;;;;;;;40.78;18.10;;;11.50;99.90;;;;;;5112416;28;20047;-74
2022/01/01 01:16:45;;;;;;;38.85;17.70;;;11.40;99.90;;;;;;5094389;28;20078;-73
2022/01/01 01:19:11;;;;;;;32.20;14.30;;;11.30;99.90;;;;;;5111105;28;20036;-74
2022/01/01 01:21:36;;;;;;;32.70;12.10;;;11.40;99.90;;;;;;5111302;28;20047;-74
2022/01/01 01:24:02;;;;;;;29.83;11.15;;;11.40;99.90;;;;;;5089366;28;20047;-73
2022/01/01 01:26:29;;;;;;;32.75;13.82;;;11.60;99.90;;;;;;5078174;28;20126;-74
2022/01/01 01:28:56;;;;;;;38.60;16.23;;;11.60;99.90;;;;;;5097636;28;20047;-74
2022/01/01 01:31:24;;;;;;;33.15;17.27;;;11.50;99.90;;;;;;5113830;28;20052;-73
2022/01/01 01:33:50;;;;;;;43.60;21.90;;;11.70;99.90;;;;;;5110951;28;20071;-73
2022/01/01 01:36:15;;;;;;;43.00;22.02;;;11.60;99.90;;;;;;5127988;27;20070;-73
2022/01/01 01:38:41;;;;;;;50.33;27.88;;;11.70;99.90;;;;;;5110687;28;20085;-74
2022/01/01 01:41:08;;;;;;;47.47;26.48;;;11.60;99.90;;;;;;5094117;28;20071;-74
2022/01/01 01:43:35;;;;;;;50.83;27.95;;;11.50;99.90;;;;;;5123852;27;20044;-73
2022/01/01 01:46:05;;;;;;;51.42;27.55;;;11.50;99.90;;;;;;5077058;28;20083;-74
2022/01/01 01:48:33;;;;;;;55.22;31.50;;;11.50;99.90;;;;;;5079773;28;20046;-74
2022/01/01 01:50:59;;;;;;;61.97;34.22;;;11.50;99.90;;;;;;5076943;28;20036;-74
2022/01/01 01:53:26;;;;;;;74.25;38.50;;;11.30;99.90;;;;;;5110183;28;20048;-74
2022/01/01 01:55:51;;;;;;;67.10;36.53;;;11.30;99.90;;;;;;5093834;28;20082;-73
2022/01/01 01:58:17;;;;;;;65.07;37.85;;;11.30;99.90;;;;;;5093231;28;20060;-73
2022/01/01 02:03:27;;;;;;;54.80;28.77;;;11.20;99.90;;;;;;5113087;28;20411;-74
2022/01/01 02:05:54;;;;;;;58.05;30.70;;;11.30;99.90;;;;;;5128916;27;20043;-74
2022/01/01 02:08:21;;;;;;;48.33;24.15;;;11.30;99.90;;;;;;5093364;28;20036;-74
2022/01/01 02:10:51;;;;;;;46.17;25.63;;;11.40;99.90;;;;;;5093424;28;20499;-74
2022/01/01 02:13:32;;;;;;;56.22;25.70;;;11.50;99.90;;;;;;5107994;28;20040;-74
2022/01/01 02:16:14;;;;;;;53.25;26.38;;;11.40;99.90;;;;;;5127441;27;20438;-74
2022/01/01 02:18:42;;;;;;;;;;;11.40;99.90;;;;;;5093640;28;20485;-74
2022/01/01 02:21:07;;;;;;;44.83;21.23;;;11.40;99.90;;;;;;5076495;28;19916;-74
2022/01/01 02:23:33;;;;;;;47.60;23.10;;;11.40;99.90;;;;;;5110612;28;20180;-74
2022/01/01 02:25:59;;;;;;;43.55;22.30;;;11.40;99.90;;;;;;5129950;27;20085;-74
2022/01/01 02:28:24;;;;;;;53.53;23.27;;;11.40;99.90;;;;;;5099011;28;20047;-74
2022/01/01 02:30:50;;;;;;;50.35;22.65;;;11.30;99.90;;;;;;5112280;28;20036;-74
2022/01/01 02:33:17;;;;;;;51.53;23.42;;;11.30;99.90;;;;;;5094723;28;20082;-74
2022/01/01 02:35:42;;;;;;;47.85;20.90;;;11.30;99.90;;;;;;5075603;28;20392;-73
2022/01/01 02:38:08;;;;;;;52.67;22.70;;;11.40;99.90;;;;;;5112828;28;20114;-73
2022/01/01 02:40:34;;;;;;;56.17;26.65;;;11.40;99.90;;;;;;5113187;28;20044;-74
2022/01/01 02:43:00;;;;;;;50.53;25.52;;;11.40;99.90;;;;;;5110954;27;20043;-74
2022/01/01 02:45:28;;;;;;;46.42;24.08;;;11.50;99.90;;;;;;5092538;28;20459;-73
2022/01/01 02:47:54;;;;;;;53.75;27.00;;;11.50;99.90;;;;;;5125392;27;20039;-74
2022/01/01 02:50:20;;;;;;;53.60;27.95;;;11.60;99.90;;;;;;5096290;28;20574;-74
2022/01/01 02:52:47;;;;;;;48.42;29.17;;;11.60;99.90;;;;;;5110052;28;20031;-74
2022/01/01 02:55:13;;;;;;;58.35;31.25;;;11.40;99.90;;;;;;5095948;28;20031;-74
2022/01/01 02:57:38;;;;;;;53.40;30.38;;;11.40;99.90;;;;;;5113081;27;20090;-74
2022/01/01 03:00:06;;;;;;;58.35;32.08;;;11.40;99.90;;;;;;5092500;28;20130;-74
2022/01/01 03:02:31;;;;;;;63.47;33.97;;;11.40;99.90;;;;;;5140219;27;20118;-74
2022/01/01 03:04:57;;;;;;;68.03;34.50;;;11.40;99.90;;;;;;5123944;27;20448;-74
2022/01/01 03:07:22;;;;;;;66.95;33.75;;;11.20;99.90;;;;;;5112632;28;20403;-74
2022/01/01 03:09:48;;;;;;;66.03;35.97;;;11.20;99.90;;;;;;5108083;28;20032;-74
2022/01/01 03:12:15;;;;;;;63.90;35.17;;;11.20;99.90;;;;;;5092053;28;20052;-74
2022/01/01 03:14:41;;;;;;;66.22;34.40;;;11.20;99.90;;;;;;5092280;28;20032;-74
2022/01/01 03:17:08;;;;;;;65.93;35.40;;;11.30;99.90;;;;;;5092245;28;20080;-74
2022/01/01 03:19:34;;;;;;;61.83;35.58;;;11.30;99.90;;;;;;5092500;28;20032;-74
2022/01/01 03:22:01;;;;;;;65.97;35.53;;;11.20;99.90;;;;;;5104109;28;20036;-74
2022/01/01 03:24:27;;;;;;;63.78;36.20;;;11.30;99.90;;;;;;5112336;28;20066;-74
2022/01/01 03:26:52;;;;;;;72.45;38.55;;;11.20;99.90;;;;;;5112485;28;20043;-74
2022/01/01 03:29:18;;;;;;;73.07;39.33;;;11.20;99.90;;;;;;5093383;28;20040;-74
2022/01/01 03:31:44;;;;;;;67.18;38.13;;;11.20;99.90;;;;;;5092187;28;20042;-74
2022/01/01 03:34:10;;;;;;;67.68;39.22;;;11.20;99.90;;;;;;5075995;28;20151;-74
2022/01/01 03:36:35;;;;;;;70.25;40.63;;;11.20;99.90;;;;;;5109051;28;20047;-74
2022/01/01 03:39:01;;;;;;;69.30;39.25;;;11.20;99.90;;;;;;5110224;28;20043;-74
2022/01/01 03:41:27;;;;;;;74.20;40.35;;;11.20;99.90;;;;;;5095464;28;20063;-74
2022/01/01 03:43:52;;;;;;;76.32;39.15;;;11.30;99.90;;;;;;5112177;28;20048;-73
2022/01/01 03:46:18;;;;;;;68.15;38.42;;;11.20;99.90;;;;;;5108490;28;20077;-74
2022/01/01 03:48:44;;;;;;;69.35;37.03;;;11.30;99.90;;;;;;5091988;28;20047;-74
2022/01/01 03:51:09;;;;;;;64.93;37.00;;;11.30;99.90;;;;;;5075079;28;20412;-74
2022/01/01 03:53:35;;;;;;;70.28;36.10;;;11.20;99.90;;;;;;5103871;28;20043;-74
2022/01/01 03:56:00;;;;;;;64.72;35.58;;;11.30;99.90;;;;;;5128242;28;20453;-74
2022/01/01 03:58:26;;;;;;;61.45;35.17;;;11.40;99.90;;;;;;5111394;28;20036;-74
2022/01/01 04:00:52;;;;;;;61.85;36.75;;;11.40;99.90;;;;;;5096953;28;20153;-74
2022/01/01 04:03:17;;;;;;;57.97;33.47;;;11.40;99.90;;;;;;5095435;28;20039;-74
2022/01/01 04:05:44;;;;;;;68.97;36.92;;;11.40;99.90;;;;;;5115547;27;20032;-74
2022/01/01 04:08:11;;;;;;;67.55;33.72;;;11.30;99.90;;;;;;5132980;27;20047;-74
2022/01/01 04:10:37;;;;;;;63.47;35.20;;;11.30;99.90;;;;;;5110770;27;20046;-74
2022/01/01 04:13:04;;;;;;;64.45;36.00;;;11.20;99.90;;;;;;5115146;28;20404;-74
2022/01/01 04:15:32;;;;;;;68.57;37.10;;;11.30;99.90;;;;;;5098059;28;20071;-74
2022/01/01 04:18:06;;;;;;;66.38;37.40;;;11.30;99.90;;;;;;5097762;28;20036;-74
2022/01/01 04:20:31;;;;;;;61.92;37.35;;;11.40;99.90;;;;;;5107363;27;20483;-74
2022/01/01 04:22:57;;;;;;;76.10;40.83;;;11.30;99.90;;;;;;5114446;28;20084;-75
2022/01/01 04:25:24;;;;;;;68.88;40.13;;;11.30;99.90;;;;;;5078521;28;20044;-74
2022/01/01 04:27:51;;;;;;;62.75;38.70;;;11.30;99.90;;;;;;5130115;27;20045;-73
2022/01/01 04:30:17;;;;;;;69.15;39.30;;;11.40;99.90;;;;;;5098712;28;20043;-73
2022/01/01 04:32:43;;;;;;;62.95;36.15;;;11.50;99.90;;;;;;5077689;28;20093;-73
2022/01/01 04:35:09;;;;;;;64.63;37.83;;;11.50;99.90;;;;;;5077017;28;20035;-73
2022/01/01 04:37:35;;;;;;;73.43;41.22;;;11.50;99.90;;;;;;5090341;28;20081;-73
2022/01/01 04:40:02;;;;;;;57.00;37.50;;;11.50;99.90;;;;;;5087441;28;20040;-73
2022/01/01 04:42:29;;;;;;;60.95;36.20;;;11.60;99.90;;;;;;5074553;28;20035;-74
2022/01/01 04:44:55;;;;;;;72.40;42.88;;;11.60;99.90;;;;;;5110152;27;20047;-74
2022/01/01 04:47:21;;;;;;;70.60;44.17;;;11.40;99.90;;;;;;5093021;28;20086;-73
2022/01/01 04:49:46;;;;;;;68.47;42.20;;;11.50;99.90;;;;;;5097856;28;20032;-74
2022/01/01 04:52:12;;;;;;;74.88;44.00;;;11.50;99.90;;;;;;5076639;28;20043;-74
2022/01/01 04:54:41;;;;;;;75.72;45.25;;;11.40;99.90;;;;;;5111894;28;20418;-74
2022/01/01 04:57:07;;;;;;;74.03;44.15;;;11.40;99.90;;;;;;5113298;28;20040;-74
2022/01/01 04:59:34;;;;;;;71.28;41.35;;;11.40;99.90;;;;;;5096505;28;20380;-74
2022/01/01 05:02:00;;;;;;;68.82;40.40;;;11.50;99.90;;;;;;5107044;28;20503;-73
2022/01/01 05:04:25;;;;;;;70.63;41.17;;;11.60;99.90;;;;;;5107814;28;20080;-73
2022/01/01 05:06:52;;;;;;;72.13;41.08;;;11.60;99.90;;;;;;5118373;27;20044;-73
2022/01/01 05:09:18;;;;;;;64.90;37.80;;;11.50;99.90;;;;;;5095603;28;20039;-74
2022/01/01 05:11:44;;;;;;;75.82;43.85;;;11.60;99.90;;;;;;5096192;28;20054;-74
2022/01/01 05:14:10;;;;;;;73.70;41.53;;;11.50;99.90;;;;;;5096773;28;20075;-74
2022/01/01 05:16:36;;;;;;;71.57;41.03;;;11.50;99.90;;;;;;5093973;28;20094;-74
2022/01/01 05:19:02;;;;;;;65.63;39.00;;;11.50;99.90;;;;;;5128479;27;20058;-74
2022/01/01 05:21:31;;;;;;;80.07;42.95;;;11.60;99.90;;;;;;5113611;28;20035;-74
2022/01/01 05:23:57;;;;;;;71.15;38.42;;;11.50;99.90;;;;;;5128783;27;20126;-74
2022/01/01 05:26:22;;;;;;;69.15;41.33;;;11.50;99.90;;;;;;5096969;28;20122;-74
2022/01/01 05:28:49;;;;;;;78.35;43.95;;;11.40;99.90;;;;;;5097499;28;20039;-74
2022/01/01 05:31:16;;;;;;;67.25;38.78;;;11.40;99.90;;;;;;5092789;28;20094;-73
2022/01/01 05:33:42;;;;;;;71.55;42.25;;;11.40;99.90;;;;;;5090173;28;20046;-74
2022/01/01 05:36:07;;;;;;;74.65;41.53;;;11.30;99.90;;;;;;5110023;27;20036;-73
2022/01/01 05:38:33;;;;;;;65.80;35.30;;;11.50;99.90;;;;;;5102781;28;20035;-74
2022/01/01 05:40:58;;;;;;;65.03;36.78;;;11.50;99.90;;;;;;5121587;27;20105;-74
2022/01/01 05:43:24;;;;;;;69.75;40.85;;;11.50;99.90;;;;;;5117463;27;20066;-74
2022/01/01 05:45:50;;;;;;;71.15;39.40;;;11.40;99.90;;;;;;5087778;28;20393;-74
2022/01/01 05:48:15;;;;;;;61.10;33.88;;;11.30;99.90;;;;;;5097488;28;20036;-74
2022/01/01 05:50:41;;;;;;;69.65;39.60;;;11.50;99.90;;;;;;5129228;27;20036;-73
2022/01/01 05:53:07;;;;;;;59.40;33.22;;;11.40;99.90;;;;;;5111187;28;20500;-74
2022/01/01 05:55:33;;;;;;;68.70;39.20;;;11.40;99.90;;;;;;5112796;28;20040;-74
2022/01/01 05:57:58;;;;;;;55.38;30.67;;;11.30;99.90;;;;;;5108945;28;20488;-74
2022/01/01 06:00:24;;;;;;;62.13;34.28;;;11.50;99.90;;;;;;5110386;28;20047;-74
2022/01/01 06:02:50;;;;;;;58.10;29.42;;;11.40;99.90;;;;;;5076554;28;20034;-74
2022/01/01 06:05:15;;;;;;;69.10;35.28;;;11.50;99.90;;;;;;5104190;28;20047;-74
2022/01/01 06:07:41;;;;;;;65.30;30.52;;;11.30;99.90;;;;;;5108255;28;20035;-74
2022/01/01 06:10:06;;;;;;;56.22;29.85;;;11.30;99.90;;;;;;5129580;27;20135;-74
2022/01/01 06:12:32;;;;;;;63.53;28.33;;;11.30;99.90;;;;;;5124065;27;20130;-74
2022/01/01 06:14:57;;;;;;;51.30;27.52;;;11.30;99.90;;;;;;5111314;28;20404;-74
2022/01/01 06:17:23;;;;;;;54.78;27.13;;;11.30;99.90;;;;;;5087841;28;20040;-73
2022/01/01 06:19:48;;;;;;;44.63;22.10;;;11.30;99.90;;;;;;5119120;27;20131;-74
2022/01/01 06:22:14;;;;;;;43.13;21.08;;;11.40;99.90;;;;;;5104781;28;20051;-74
2022/01/01 06:24:39;;;;;;;47.72;20.95;;;11.60;99.90;;;;;;5123834;27;20047;-73
2022/01/01 06:27:06;;;;;;;40.47;20.25;;;11.40;99.90;;;;;;5109230;28;20126;-73
2022/01/01 06:29:31;;;;;;;43.78;19.38;;;11.50;99.90;;;;;;5095707;28;20412;-73
2022/01/01 06:31:57;;;;;;;49.00;23.85;;;11.40;99.90;;;;;;5112219;28;20032;-74
2022/01/01 06:34:23;;;;;;;45.47;22.63;;;11.30;99.90;;;;;;5096307;28;20032;-74
2022/01/01 06:36:51;;;;;;;40.08;19.75;;;11.20;99.90;;;;;;5088673;28;20496;-74
2022/01/01 06:39:17;;;;;;;48.70;22.27;;;11.30;99.90;;;;;;5111956;28;20035;-73
2022/01/01 06:41:43;;;;;;;48.08;21.65;;;11.20;99.90;;;;;;5108666;28;20388;-73
2022/01/01 06:44:08;;;;;;;48.35;21.10;;;11.20;99.90;;;;;;5137943;27;20063;-73
2022/01/01 06:46:34;;;;;;;44.17;19.83;;;11.30;99.90;;;;;;5121060;27;20093;-74
2022/01/01 06:48:59;;;;;;;44.55;19.02;;;11.30;99.90;;;;;;5108821;27;20040;-74
2022/01/01 06:51:25;;;;;;;41.83;18.42;;;11.30;99.90;;;;;;5108045;28;20356;-74
2022/01/01 06:53:51;;;;;;;38.08;17.70;;;11.50;99.90;;;;;;5127487;27;20544;-73
2022/01/01 06:56:16;;;;;;;39.35;16.73;;;11.50;99.90;;;;;;5092107;28;20024;-73
2022/01/01 06:58:42;;;;;;;39.47;16.10;;;11.50;99.90;;;;;;5100865;28;20036;-73
2022/01/01 07:01:07;;;;;;;35.03;16.95;;;11.60;99.90;;;;;;5103465;28;20063;-73
2022/01/01 07:03:33;;;;;;;41.58;16.90;;;11.60;99.90;;;;;;5111743;28;20503;-73
2022/01/01 07:05:58;;;;;;;43.10;16.55;;;11.70;99.90;;;;;;5108284;28;20420;-73
2022/01/01 07:08:24;;;;;;;42.03;16.20;;;11.60;99.90;;;;;;5108840;28;20048;-73
2022/01/01 07:10:50;;;;;;;39.90;17.25;;;11.50;99.90;;;;;;5125862;27;20044;-74
2022/01/01 07:13:16;;;;;;;44.65;18.35;;;11.50;99.90;;;;;;5114195;27;20032;-74
2022/01/01 07:15:42;;;;;;;42.72;17.77;;;11.50;99.90;;;;;;5094402;28;20040;-74
2022/01/01 07:18:08;;;;;;;41.90;18.58;;;11.50;99.90;;;;;;5102795;28;20073;-73
2022/01/01 07:20:33;;;;;;;40.58;15.93;;;11.50;99.90;;;;;;5115677;27;20060;-73
2022/01/01 07:22:59;;;;;;;39.78;16.40;;;11.50;99.90;;;;;;5076567;28;20044;-73
2022/01/01 07:25:25;;;;;;;42.10;17.05;;;11.70;99.90;;;;;;5110769;28;20039;-74
2022/01/01 07:27:50;;;;;;;34.67;16.65;;;11.60;99.90;;;;;;5090430;28;20479;-73
2022/01/01 07:30:16;;;;;;;33.13;15.40;;;11.60;99.90;;;;;;5117859;27;20051;-74
2022/01/01 07:32:44;;;;;;;31.30;14.57;;;11.70;99.90;;;;;;5103043;28;20035;-73
2022/01/01 07:35:12;;;;;;;38.45;16.40;;;11.80;99.90;;;;;;5110399;28;20044;-73
2022/01/01 07:37:37;;;;;;;38.05;15.88;;;11.80;99.90;;;;;;5108991;28;20433;-73
2022/01/01 07:40:05;;;;;;;33.50;15.20;;;11.80;99.90;;;;;;5130147;27;20040;-73
2022/01/01 07:42:31;;;;;;;38.83;16.33;;;11.90;99.90;;;;;;5093870;28;20114;-73
2022/01/01 07:44:57;;;;;;;33.63;14.85;;;11.90;99.90;;;;;;5097645;28;20493;-74
2022/01/01 07:47:22;;;;;;;33.47;13.57;;;11.90;99.90;;;;;;5102203;28;20036;-74
2022/01/01 07:49:48;;;;;;;30.63;14.60;;;12.00;99.90;;;;;;5091962;28;20461;-74
2022/01/01 07:52:14;;;;;;;40.55;14.68;;;12.00;99.90;;;;;;5078725;28;20032;-73
2022/01/01 07:54:39;;;;;;;34.95;16.05;;;12.00;99.90;;;;;;5117866;28;20061;-73
2022/01/01 07:57:05;;;;;;;33.67;15.88;;;12.00;99.90;;;;;;5105397;28;20040;-73
2022/01/01 07:59:30;;;;;;;34.83;15.98;;;11.90;99.90;;;;;;5103593;28;20032;-73
2022/01/01 08:01:56;;;;;;;37.30;15.90;;;11.90;99.90;;;;;;5097239;28;20456;-73
2022/01/01 08:04:22;;;;;;;32.72;17.00;;;12.00;99.90;;;;;;5098267;28;20085;-73
2022/01/01 08:06:47;;;;;;;38.83;16.45;;;12.10;99.90;;;;;;5110066;28;20039;-73
2022/01/01 08:09:14;;;;;;;40.97;16.65;;;12.00;99.90;;;;;;5108586;28;20395;-73
2022/01/01 08:11:40;;;;;;;36.35;16.73;;;12.10;99.90;;;;;;5114339;28;20040;-73
2022/01/01 08:14:06;;;;;;;39.90;16.38;;;12.10;99.90;;;;;;5126827;28;20036;-73
2022/01/01 08:16:31;;;;;;;34.90;14.57;;;12.10;99.90;;;;;;5111005;28;20031;-73
2022/01/01 08:18:57;;;;;;;36.72;16.42;;;12.10;99.90;;;;;;5106177;28;21406;-74
2022/01/01 08:21:22;;;;;;;31.27;16.55;;;12.10;99.90;;;;;;5094646;28;20042;-73
2022/01/01 08:23:48;;;;;;;33.58;14.65;;;12.20;99.90;;;;;;5095347;28;20118;-73
2022/01/01 08:26:14;;;;;;;33.50;16.52;;;12.20;99.90;;;;;;5118299;28;20054;-73
2022/01/01 08:28:41;;;;;;;32.20;17.08;;;12.20;99.90;;;;;;5106436;28;20043;-73
2022/01/01 08:31:07;;;;;;;32.13;16.80;;;12.20;99.90;;;;;;5110564;28;20522;-73
2022/01/01 08:33:32;;;;;;;37.55;18.17;;;12.30;99.90;;;;;;5110206;28;20071;-73
2022/01/01 08:35:58;;;;;;;33.03;17.77;;;12.30;99.90;;;;;;5109958;28;20031;-73
2022/01/01 08:38:24;;;;;;;44.38;19.63;;;12.30;99.90;;;;;;5108559;28;20523;-73
2022/01/01 08:40:49;;;;;;;40.65;18.73;;;12.30;99.90;;;;;;5096795;28;20062;-74
2022/01/01 08:43:15;;;;;;;37.25;19.73;;;12.20;99.90;;;;;;5075119;28;20071;-73
2022/01/01 08:45:41;;;;;;;36.75;19.00;;;12.30;99.90;;;;;;5111337;28;20087;-74
2022/01/01 08:48:07;;;;;;;42.33;20.10;;;12.30;99.90;;;;;;5100787;28;20043;-73
2022/01/01 08:50:33;;;;;;;37.78;19.45;;;12.30;99.90;;;;;;5087860;28;20031;-73
2022/01/01 08:52:59;;;;;;;36.08;20.17;;;12.30;99.90;;;;;;5090798;28;20062;-74
2022/01/01 08:55:29;;;;;;;38.13;20.40;;;12.20;99.90;;;;;;5130368;27;20093;-74
2022/01/01 08:57:54;;;;;;;44.55;21.73;;;12.20;99.90;;;;;;5101524;28;20085;-73
2022/01/01 09:00:21;;;;;;;41.75;21.38;;;12.30;99.90;;;;;;5096135;28;20071;-74
2022/01/01 09:02:47;;;;;;;46.33;23.33;;;12.20;99.90;;;;;;5084153;28;20388;-74
2022/01/01 09:05:13;;;;;;;38.92;21.88;;;12.20;99.90;;;;;;5096383;28;20043;-73
2022/01/01 09:07:38;;;;;;;38.00;21.88;;;12.10;99.90;;;;;;5112637;28;20031;-73
2022/01/01 09:10:05;;;;;;;37.35;20.95;;;12.10;99.90;;;;;;5109333;28;20096;-73
2022/01/01 09:12:31;;;;;;;37.20;19.27;;;12.30;99.90;;;;;;5097401;28;20080;-77
2022/01/01 09:14:57;;;;;;;40.65;20.15;;;12.30;99.90;;;;;;5107795;28;20035;-80
2022/01/01 09:17:23;;;;;;;35.97;20.02;;;12.30;99.90;;;;;;5114433;28;20035;-79
2022/01/01 09:19:49;;;;;;;39.45;20.15;;;12.30;99.90;;;;;;5091709;28;20110;-81
2022/01/01 09:22:15;;;;;;;35.13;19.70;;;12.30;99.90;;;;;;5113864;28;20040;-74
2022/01/01 09:24:41;;;;;;;35.80;19.63;;;12.30;99.90;;;;;;5110382;28;20043;-74
2022/01/01 09:27:07;;;;;;;33.40;18.73;;;12.40;99.90;;;;;;5089575;28;20039;-74
2022/01/01 09:29:33;;;;;;;36.38;18.70;;;12.50;99.90;;;;;;5114060;28;20434;-74
2022/01/01 09:31:58;;;;;;;33.45;19.90;;;12.50;99.90;;;;;;5094978;28;20146;-74
2022/01/01 09:34:25;;;;;;;32.97;17.63;;;12.40;99.90;;;;;;5112884;27;20126;-74
2022/01/01 09:36:51;;;;;;;31.20;16.80;;;12.50;99.90;;;;;;5130399;27;20032;-74
2022/01/01 09:39:17;;;;;;;33.28;17.55;;;12.60;99.90;;;;;;5114214;28;20507;-74
2022/01/01 09:41:43;;;;;;;32.08;17.55;;;12.70;99.90;;;;;;5109111;28;20043;-74
2022/01/01 09:44:14;;;;;;;28.95;17.65;;;12.80;99.90;;;;;;5114086;28;20445;-74
2022/01/01 09:46:42;;;;;;;37.20;18.13;;;12.80;99.90;;;;;;5085379;28;20044;-74
2022/01/01 09:49:08;;;;;;;32.03;18.88;;;12.70;99.90;;;;;;5124159;27;20039;-74
2022/01/01 09:51:35;;;;;;;31.00;18.90;;;12.70;99.90;;;;;;5112591;28;20066;-74
2022/01/01 09:54:01;;;;;;;30.17;17.65;;;12.70;99.90;;;;;;5092376;28;20076;-74
2022/01/01 09:56:26;;;;;;;32.53;19.02;;;12.70;99.90;;;;;;5100969;28;20078;-74
2022/01/01 09:58:52;;;;;;;33.72;18.30;;;12.70;99.90;;;;;;5099465;28;20040;-74
2022/01/01 10:01:17;;;;;;;32.92;18.98;;;12.70;99.90;;;;;;5111504;27;20032;-74
2022/01/01 10:03:49;;;;;;;29.23;15.73;;;12.70;99.90;;;;;;5080926;28;20038;-74
2022/01/01 10:06:16;;;;;;;31.58;18.95;;;12.70;99.90;;;;;;5110649;28;20083;-74
2022/01/01 10:08:55;;;;;;;34.78;18.35;;;12.70;99.90;;;;;;5094014;28;20123;-74
2022/01/01 10:11:21;;;;;;;29.05;17.33;;;12.80;99.90;;;;;;5108678;28;20044;-74
2022/01/01 10:13:47;;;;;;;37.05;18.77;;;12.70;99.90;;;;;;5110184;27;20040;-74
2022/01/01 10:16:14;;;;;;;29.52;17.40;;;12.60;99.90;;;;;;5099409;28;20483;-74
2022/01/01 10:18:42;;;;;;;28.10;18.95;;;12.60;99.90;;;;;;5113322;28;20048;-74
2022/01/01 10:21:10;;;;;;;30.63;16.58;;;12.60;99.90;;;;;;5110114;27;20486;-74
2022/01/01 10:23:38;;;;;;;30.38;16.90;;;12.70;99.90;;;;;;5126676;27;20038;-74
2022/01/01 10:29:24;;;;;;;24.98;14.90;;;12.70;99.90;;;;;;5100795;27;20048;-74
2022/01/01 10:32:01;;;;;;;30.70;16.08;;;12.80;99.90;;;;;;5086214;28;20044;-74
2022/01/01 10:34:33;;;;;;;31.25;15.65;;;12.80;99.90;;;;;;5133346;27;20426;-74
2022/01/01 10:36:59;;;;;;;29.15;16.02;;;12.70;99.90;;;;;;5110320;28;20065;-74
2022/01/01 10:39:25;;;;;;;27.77;15.65;;;12.70;99.90;;;;;;5093120;28;20395;-74
2022/01/01 10:41:54;;;;;;;26.65;14.20;;;12.70;99.90;;;;;;5107334;28;20039;-74
2022/01/01 10:44:31;;;;;;;23.83;13.80;;;12.60;99.90;;;;;;5107903;28;20104;-74
2022/01/01 10:47:06;;;;;;;26.58;14.10;;;12.70;99.90;;;;;;5102472;28;20503;-74
2022/01/01 10:52:23;;;;;;;22.10;12.82;;;12.70;99.90;;;;;;5111610;28;20043;-74
2022/01/01 10:54:57;;;;;;;27.98;14.10;;;12.70;99.90;;;;;;5111638;28;20397;-74
2022/01/01 10:57:32;;;;;;;26.85;13.60;;;12.60;99.90;;;;;;5095368;28;20058;-74
2022/01/01 11:00:16;;;;;;;21.38;12.88;;;12.60;99.90;;;;;;5094339;28;20488;-74
2022/01/01 11:02:55;;;;;;;26.45;12.70;;;12.70;99.90;;;;;;5088390;28;20089;-75
2022/01/01 11:05:32;;;;;;;20.77;11.65;;;12.70;99.90;;;;;;5089943;28;20043;-74
2022/01/01 11:07:59;;;;;;;23.65;12.60;;;12.70;99.90;;;;;;5099538;28;20124;-74
2022/01/01 11:10:26;;;;;;;20.40;11.88;;;12.70;99.90;;;;;;5092883;28;20498;-74
2022/01/01 11:12:53;;;;;;;24.55;12.68;;;12.70;99.90;;;;;;5093388;28;20077;-74
2022/01/01 11:15:20;;;;;;;24.00;11.07;;;12.70;99.90;;;;;;5112007;28;20111;-74
2022/01/01 11:17:46;;;;;;;22.35;11.52;;;12.70;99.90;;;;;;5094660;28;20050;-74
2022/01/01 11:20:13;;;;;;;22.67;11.80;;;12.80;99.90;;;;;;5094274;28;20567;-74
2022/01/01 11:22:38;;;;;;;20.10;9.85;;;12.80;99.90;;;;;;5107257;28;20067;-74
2022/01/01 11:25:04;;;;;;;16.52;9.38;;;12.80;99.90;;;;;;5098799;28;20074;-74
2022/01/01 11:27:31;;;;;;;21.15;9.80;;;12.80;99.90;;;;;;5124520;27;20461;-74
2022/01/01 11:29:59;;;;;;;18.02;8.77;;;12.80;99.90;;;;;;5088388;28;20064;-74
2022/01/01 11:32:37;;;;;;;18.50;9.05;;;12.80;99.90;;;;;;5092866;28;20042;-74
2022/01/01 11:35:04;;;;;;;19.52;9.63;;;12.80;99.90;;;;;;5101925;28;20043;-74
2022/01/01 11:37:45;;;;;;;18.05;8.15;;;12.90;99.90;;;;;;5106438;28;20092;-74
2022/01/01 11:40:14;;;;;;;18.58;7.90;;;13.00;99.90;;;;;;5086412;28;20032;-74
2022/01/01 11:42:47;;;;;;;16.95;8.02;;;13.00;99.90;;;;;;5108007;28;20111;-74
2022/01/01 11:45:44;;;;;;;17.60;7.43;;;12.90;99.90;;;;;;5108189;28;20055;-74
2022/01/01 11:48:43;;;;;;;15.40;7.18;;;13.00;99.90;;;;;;5108928;28;20054;-74
2022/01/01 11:51:31;;;;;;;17.70;7.10;;;13.00;99.90;;;;;;5110572;28;20491;-74
2022/01/01 11:54:15;;;;;;;14.80;6.25;;;13.00;99.90;;;;;;5087165;28;20037;-74
2022/01/01 11:56:47;;;;;;;12.45;6.10;;;13.00;99.90;;;;;;5092257;28;20093;-74
2022/01/01 11:59:23;;;;;;;13.48;6.15;;;13.00;99.90;;;;;;5074779;28;20484;-74
2022/01/01 12:01:55;;;;;;;13.57;6.18;;;13.10;99.90;;;;;;5080094;28;20029;-74
2022/01/01 12:04:37;;;;;;;14.80;6.78;;;13.10;99.90;;;;;;5091162;28;20127;-74
2022/01/01 12:07:21;;;;;;;14.80;6.28;;;13.10;99.90;;;;;;5104262;28;20495;-74
2022/01/01 12:10:01;;;;;;;17.20;5.80;;;13.10;99.90;;;;;;5107388;28;20036;-74
2022/01/01 12:12:38;;;;;;;14.73;6.28;;;13.10;99.90;;;;;;5126102;27;20044;-74
2022/01/01 12:15:08;;;;;;;13.90;6.43;;;13.10;99.90;;;;;;5107446;28;20050;-74
2022/01/01 12:17:42;;;;;;;12.75;6.35;;;13.10;99.90;;;;;;5086276;28;20075;-74
2022/01/01 12:20:14;;;;;;;17.88;6.43;;;13.10;99.90;;;;;;5105440;28;20522;-74
2022/01/01 12:22:43;;;;;;;13.20;5.82;;;13.00;99.90;;;;;;5141996;27;20555;-74
2022/01/01 12:25:09;;;;;;;12.75;5.07;;;13.00;99.90;;;;;;5096866;28;20054;-74
2022/01/01 12:27:48;;;;;;;12.90;5.90;;;13.20;99.90;;;;;;5091783;28;20039;-74
2022/01/01 12:30:30;;;;;;;12.95;5.57;;;13.00;99.90;;;;;;5095109;28;20043;-74
2022/01/01 12:32:55;;;;;;;10.90;5.50;;;13.10;99.90;;;;;;5097844;28;20044;-74
2022/01/01 12:35:50;;;;;;;14.30;5.10;;;13.10;99.90;;;;;;5095203;28;20327;-74
2022/01/01 12:38:19;;;;;;;14.25;5.47;;;13.20;99.90;;;;;;5098797;28;20038;-73